Time;durP1;ratioP1;P1;durP2;ratioP2;P2;SDS_P1;SDS_P2;PMS_P1;PMS_P2;Temp;Humidity;BMP_temperature;BMP_pressure;BME280_temperature;BME280_humidity;BME280_pressure;Samples;Min_cycle;Max_cycle;Signal;HPM_P1;HPM_P2
2022/02/24 00:00:18;;;;;;;3.83;3.50;;;;;;;9.49;52.53;101116.63;4980650;28;20423;-65
2022/02/24 00:02:44;;;;;;;5.93;3.90;;;;;;;9.44;52.41;101126.97;4980118;28;20208;-65
2022/02/24 00:05:10;;;;;;;5.40;3.60;;;;;;;9.52;52.16;101113.22;4980060;28;20409;-64
2022/02/24 00:07:35;;;;;;;4.73;3.50;;;;;;;9.55;52.42;101121.06;4980676;28;20416;-65
2022/02/24 00:10:01;;;;;;;4.83;3.63;;;;;;;9.30;52.99;101104.97;4980034;28;20486;-64
2022/02/24 00:12:26;;;;;;;4.80;3.80;;;;;;;9.58;52.71;101105.53;4980159;28;20259;-65
2022/02/24 00:14:53;;;;;;;8.43;4.93;;;;;;;9.77;51.98;101097.22;4980444;28;20175;-66
2022/02/24 00:17:19;;;;;;;9.90;6.30;;;;;;;9.71;52.22;101099.69;4980170;28;20168;-64
2022/02/24 00:19:44;;;;;;;7.70;4.37;;;;;;;9.42;52.30;101094.81;4980123;28;20423;-65
2022/02/24 00:22:09;;;;;;;6.50;3.80;;;;;;;9.93;52.36;101080.16;4980549;28;20495;-66
2022/02/24 00:24:35;;;;;;;9.03;4.30;;;;;;;9.75;51.88;101083.28;4979785;28;20538;-66
2022/02/24 00:27:00;;;;;;;5.93;4.00;;;;;;;9.70;52.31;101084.94;4963088;28;20183;-65
2022/02/24 00:29:26;;;;;;;9.00;4.00;;;;;;;9.38;52.39;101087.78;4980450;28;20438;-65
2022/02/24 00:31:51;;;;;;;4.43;3.90;;;;;;;9.90;51.79;101081.81;4978960;28;20564;-65
2022/02/24 00:34:16;;;;;;;5.40;3.83;;;;;;;9.59;53.02;101081.25;4979148;28;20471;-66
2022/02/24 00:36:42;;;;;;;9.00;4.20;;;;;;;9.83;51.99;101077.34;4980101;28;20551;-66
2022/02/24 00:39:07;;;;;;;5.33;3.90;;;;;;;9.75;51.83;101083.28;4979984;28;20236;-65
2022/02/24 00:41:33;;;;;;;8.30;4.00;;;;;;;9.72;51.81;101080.63;4979685;28;20831;-64
2022/02/24 00:43:58;;;;;;;6.57;4.77;;;;;;;9.61;52.66;101079.56;4979875;28;20212;-65
2022/02/24 00:46:23;;;;;;;6.30;4.00;;;;;;;9.57;52.19;101078.63;4979627;28;20172;-65
2022/02/24 00:48:49;;;;;;;7.20;4.27;;;;;;;9.26;52.93;101067.59;4979512;28;20189;-64
2022/02/24 00:51:14;;;;;;;7.40;3.70;;;;;;;9.44;52.81;101067.09;4980064;28;20169;-66
2022/02/24 00:53:41;;;;;;;6.13;4.17;;;;;;;9.59;52.35;101068.22;4979273;28;20275;-65
2022/02/24 00:56:08;;;;;;;9.53;4.43;;;;;;;9.47;54.09;101075.81;4979382;28;20236;-63
2022/02/24 00:58:33;;;;;;;13.33;4.37;;;;;;;9.38;53.58;101073.91;4963104;28;20404;-65
2022/02/24 01:00:58;;;;;;;9.40;5.50;;;;;;;9.43;53.53;101059.25;4979524;28;20398;-63
2022/02/24 01:03:24;;;;;;;5.87;4.40;;;;;;;9.20;54.18;101061.38;4979104;28;20207;-65
2022/02/24 01:05:49;;;;;;;8.07;4.40;;;;;;;9.00;54.99;101051.47;4980057;28;20538;-65
2022/02/24 01:08:14;;;;;;;7.70;4.40;;;;;;;9.42;53.66;101047.09;4979380;28;20176;-64
2022/02/24 01:10:39;;;;;;;10.50;4.37;;;;;;;9.50;53.41;101044.63;4979431;28;20243;-64
2022/02/24 01:13:05;;;;;;;6.57;4.40;;;;;;;9.39;53.25;101042.72;4979457;28;20219;-65
2022/02/24 01:15:30;;;;;;;9.40;4.40;;;;;;;9.26;53.93;101040.72;4979296;28;20180;-64
2022/02/24 01:17:55;;;;;;;5.53;4.03;;;;;;;9.04;54.77;101032.47;4979263;28;20428;-65
2022/02/24 01:20:21;;;;;;;6.33;4.73;;;;;;;9.63;53.06;101028.38;4979802;28;20169;-64
2022/02/24 01:22:47;;;;;;;6.07;4.27;;;;;;;9.62;53.23;101018.84;4979035;28;20295;-65
2022/02/24 01:25:12;;;;;;;7.63;4.93;;;;;;;9.27;54.27;101021.66;4979333;28;20263;-65
2022/02/24 01:27:38;;;;;;;4.60;3.90;;;;;;;8.96;54.74;101025.34;4979578;28;20211;-65
2022/02/24 01:30:04;;;;;;;7.27;4.40;;;;;;;9.04;55.14;101014.28;4979189;28;20204;-65
2022/02/24 01:32:29;;;;;;;8.37;4.60;;;;;;;8.91;54.68;101004.47;4979033;28;20184;-64
2022/02/24 01:34:58;;;;;;;6.70;4.53;;;;;;;9.49;54.16;100999.50;4978977;28;20449;-64
2022/02/24 01:37:24;;;;;;;6.50;4.13;;;;;;;9.36;54.40;101003.63;4979078;28;20598;-64
2022/02/24 01:39:50;;;;;;;7.50;4.53;;;;;;;9.27;54.41;100993.91;4979243;28;20817;-65
2022/02/24 01:42:15;;;;;;;6.30;4.03;;;;;;;8.87;55.03;100989.66;4978815;28;20415;-65
2022/02/24 01:44:43;;;;;;;6.13;4.50;;;;;;;9.03;55.65;100990.84;4981830;28;20172;-65
2022/02/24 01:47:09;;;;;;;10.10;4.70;;;;;;;9.02;55.35;100989.94;4983319;28;20212;-65
2022/02/24 01:49:34;;;;;;;11.10;4.83;;;;;;;8.81;55.56;100979.09;4966132;28;20701;-64
2022/02/24 01:52:00;;;;;;;5.93;4.17;;;;;;;8.89;55.38;100981.03;4982828;28;20325;-65
2022/02/24 01:54:25;;;;;;;6.40;4.50;;;;;;;8.69;55.92;100979.75;4982907;28;20259;-64
2022/02/24 01:56:50;;;;;;;6.13;4.23;;;;;;;9.06;55.72;100973.56;4982571;28;20191;-65
2022/02/24 01:59:16;;;;;;;6.60;4.73;;;;;;;8.85;55.67;100980.94;4982548;28;20191;-65
2022/02/24 02:01:41;;;;;;;6.73;4.50;;;;;;;9.14;55.57;100970.25;4982696;28;20192;-64
2022/02/24 02:04:07;;;;;;;6.00;4.30;;;;;;;9.08;55.07;100965.81;4982225;28;20287;-64
2022/02/24 02:06:34;;;;;;;8.07;5.00;;;;;;;9.19;55.00;100966.00;4965766;28;20176;-64
2022/02/24 02:08:59;;;;;;;7.67;4.80;;;;;;;8.94;54.70;100960.31;4982942;28;20407;-64
2022/02/24 02:11:24;;;;;;;7.23;4.80;;;;;;;9.35;55.56;100952.44;4965663;28;20424;-65
2022/02/24 02:13:49;;;;;;;5.53;4.73;;;;;;;9.19;55.31;100953.88;4965459;28;20180;-64
2022/02/24 02:16:15;;;;;;;5.00;4.53;;;;;;;8.90;55.57;100959.41;4982915;28;20188;-64
2022/02/24 02:18:41;;;;;;;9.00;4.50;;;;;;;9.12;55.65;100949.41;4982222;28;20442;-64
2022/02/24 02:21:07;;;;;;;7.87;4.70;;;;;;;8.56;56.44;100958.69;4982165;28;20445;-65
2022/02/24 02:23:32;;;;;;;5.83;4.40;;;;;;;8.95;55.53;100949.06;4982485;28;20462;-65
2022/02/24 02:25:57;;;;;;;7.63;4.63;;;;;;;8.76;56.47;100940.03;4982190;28;20235;-65
2022/02/24 02:28:23;;;;;;;11.10;5.37;;;;;;;8.87;56.02;100940.25;4982116;28;20407;-66
2022/02/24 02:30:48;;;;;;;5.43;4.37;;;;;;;8.87;56.27;100948.06;4982485;28;20397;-65
2022/02/24 02:33:13;;;;;;;6.63;4.87;;;;;;;9.24;54.59;100936.63;4983254;28;20215;-66
2022/02/24 02:35:39;;;;;;;6.80;4.73;;;;;;;9.47;54.63;100933.56;4981750;28;20232;-65
2022/02/24 02:38:04;;;;;;;5.90;5.30;;;;;;;8.95;55.37;100927.41;4982226;28;20180;-66
2022/02/24 02:40:30;;;;;;;9.33;5.20;;;;;;;9.22;55.06;100914.03;4981702;28;20183;-66
2022/02/24 02:42:55;;;;;;;9.80;5.60;;;;;;;9.48;54.49;100911.00;4981667;28;20223;-64
2022/02/24 02:45:21;;;;;;;7.70;5.33;;;;;;;9.19;55.20;100909.66;4982276;28;20419;-64
2022/02/24 02:47:47;;;;;;;6.77;4.97;;;;;;;9.39;55.36;100901.31;4982010;28;20217;-65
2022/02/24 02:50:12;;;;;;;7.03;4.80;;;;;;;9.24;55.26;100913.22;4965240;28;20218;-65
2022/02/24 02:52:38;;;;;;;9.70;5.50;;;;;;;9.24;55.21;100905.41;4982485;28;20183;-64
2022/02/24 02:55:09;;;;;;;10.23;4.80;;;;;;;9.17;54.94;100902.66;4980601;28;20279;-64
2022/02/24 02:57:35;;;;;;;12.70;5.43;;;;;;;9.48;54.15;100900.59;4981526;28;20545;-64
2022/02/24 03:00:07;;;;;;;6.50;5.07;;;;;;;9.45;53.99;100906.63;4982023;28;20507;-66
2022/02/24 03:02:32;;;;;;;9.67;5.20;;;;;;;9.35;55.03;100902.09;4964808;28;20479;-65
2022/02/24 03:04:58;;;;;;;9.47;4.97;;;;;;;9.25;54.49;100896.78;4981407;28;20428;-65
2022/02/24 03:07:24;;;;;;;14.40;5.70;;;;;;;9.18;54.67;100897.50;4982125;28;20408;-64
2022/02/24 03:09:49;;;;;;;6.97;5.03;;;;;;;8.83;55.98;100895.09;4981376;28;20526;-64
2022/02/24 03:12:15;;;;;;;7.77;5.50;;;;;;;9.09;55.56;100892.13;4981439;28;20176;-64
2022/02/24 03:14:40;;;;;;;8.70;6.47;;;;;;;8.89;55.24;100891.75;4981575;28;20173;-64
2022/02/24 03:17:06;;;;;;;6.57;5.57;;;;;;;9.18;55.31;100891.41;4981232;28;20257;-65
2022/02/24 03:19:31;;;;;;;10.53;5.97;;;;;;;9.02;55.04;100891.13;4964280;28;20236;-64
2022/02/24 03:21:57;;;;;;;13.00;6.00;;;;;;;9.41;54.93;100887.47;4981457;28;20168;-64
2022/02/24 03:24:22;;;;;;;7.50;5.23;;;;;;;9.09;54.87;100877.41;4980780;28;20218;-64
2022/02/24 03:26:48;;;;;;;10.40;5.50;;;;;;;9.09;55.34;100881.72;4980857;28;20176;-64
2022/02/24 03:29:13;;;;;;;10.90;5.30;;;;;;;8.99;55.06;100874.63;4981704;28;20192;-64
2022/02/24 03:31:39;;;;;;;13.03;6.70;;;;;;;9.22;55.67;100867.22;4980904;28;20423;-64
2022/02/24 03:34:04;;;;;;;7.33;5.07;;;;;;;9.17;54.68;100868.84;4980477;28;20223;-64
2022/02/24 03:36:29;;;;;;;5.90;5.00;;;;;;;9.33;55.57;100865.66;4981127;28;20172;-64
2022/02/24 03:38:54;;;;;;;8.50;5.23;;;;;;;9.14;54.52;100864.47;4980684;28;20208;-65
2022/02/24 03:41:20;;;;;;;5.80;5.17;;;;;;;9.15;54.19;100866.22;4980613;28;20453;-64
2022/02/24 03:43:45;;;;;;;7.60;5.60;;;;;;;9.25;53.68;100862.06;4981159;28;20207;-65
2022/02/24 03:46:10;;;;;;;7.80;5.37;;;;;;;8.85;54.61;100861.34;4980618;28;20172;-64
2022/02/24 03:48:36;;;;;;;9.63;6.50;;;;;;;8.97;53.89;100866.78;4980543;28;20538;-65
2022/02/24 03:51:01;;;;;;;8.20;5.30;;;;;;;8.75;54.45;100856.00;4981343;28;20171;-65
2022/02/24 03:53:26;;;;;;;6.60;5.20;;;;;;;8.82;54.30;100856.09;4980273;28;20176;-65
2022/02/24 03:55:52;;;;;;;9.60;5.63;;;;;;;8.93;54.79;100854.59;4980593;28;20183;-65
2022/02/24 03:58:17;;;;;;;10.30;5.40;;;;;;;9.06;54.44;100850.47;4981336;28;20176;-64
2022/02/24 04:00:42;;;;;;;8.30;5.50;;;;;;;9.08;53.70;100841.84;4980667;28;20274;-64
2022/02/24 04:03:08;;;;;;;8.60;5.80;;;;;;;9.10;54.90;100840.13;4980498;28;20207;-64
2022/02/24 04:05:33;;;;;;;6.97;5.10;;;;;;;8.85;54.60;100840.53;4980845;28;20179;-64
2022/02/24 04:07:58;;;;;;;7.17;4.90;;;;;;;8.86;54.47;100835.41;4980105;28;20479;-64
2022/02/24 04:10:24;;;;;;;7.60;5.50;;;;;;;9.15;52.71;100839.34;4980399;28;20538;-65
2022/02/24 04:12:49;;;;;;;7.00;5.37;;;;;;;9.34;52.93;100831.00;4980507;28;20192;-64
2022/02/24 04:15:14;;;;;;;5.30;4.73;;;;;;;8.95;52.88;100834.66;4963623;28;20176;-64
2022/02/24 04:17:40;;;;;;;6.23;4.80;;;;;;;9.17;52.59;100837.63;4980206;28;20379;-64
2022/02/24 04:20:06;;;;;;;10.40;5.00;;;;;;;9.21;52.26;100834.25;4980606;28;20212;-64
2022/02/24 04:22:31;;;;;;;6.77;4.93;;;;;;;9.44;52.13;100827.69;4963336;28;20227;-64
2022/02/24 04:24:58;;;;;;;9.50;5.27;;;;;;;9.36;52.03;100831.91;4979972;28;20537;-65
2022/02/24 04:27:23;;;;;;;8.93;5.10;;;;;;;9.24;51.83;100829.06;4980294;28;20165;-65
2022/02/24 04:29:49;;;;;;;7.13;5.23;;;;;;;9.56;51.84;100828.72;4979719;28;20391;-66
2022/02/24 04:32:14;;;;;;;7.30;5.27;;;;;;;9.61;51.42;100819.25;4979860;28;20267;-66
2022/02/24 04:34:40;;;;;;;8.33;5.10;;;;;;;9.02;53.25;100820.91;4979761;28;20228;-64
2022/02/24 04:37:05;;;;;;;8.03;5.60;;;;;;;8.91;53.74;100810.31;4979723;28;20172;-64
2022/02/24 04:39:30;;;;;;;7.37;4.90;;;;;;;9.23;53.75;100803.94;4979800;28;20177;-65
2022/02/24 04:41:56;;;;;;;8.10;5.80;;;;;;;9.02;53.65;100796.66;4979909;28;20176;-64
2022/02/24 04:44:21;;;;;;;7.43;5.60;;;;;;;9.20;53.06;100798.66;4979709;28;20233;-65
2022/02/24 04:46:46;;;;;;;9.33;6.07;;;;;;;9.41;53.16;100793.81;4980024;28;20219;-64
2022/02/24 04:49:11;;;;;;;7.20;5.60;;;;;;;9.36;52.64;100792.88;4979538;28;20440;-64
2022/02/24 04:51:37;;;;;;;7.60;5.30;;;;;;;9.18;53.73;100787.38;4979477;28;20181;-66
2022/02/24 04:54:02;;;;;;;10.03;5.20;;;;;;;9.27;53.90;100784.94;4979666;28;20219;-64
2022/02/24 04:56:28;;;;;;;6.10;5.17;;;;;;;8.64;56.18;100776.94;4979371;28;20185;-65
2022/02/24 04:58:53;;;;;;;8.03;5.80;;;;;;;9.03;55.28;100773.25;4979243;28;20183;-64
2022/02/24 05:01:18;;;;;;;10.43;5.30;;;;;;;9.12;55.07;100771.66;4979887;28;20184;-64
2022/02/24 05:03:43;;;;;;;9.43;6.03;;;;;;;9.06;55.77;100768.09;4979061;28;20585;-63
2022/02/24 05:06:09;;;;;;;8.53;4.93;;;;;;;8.82;55.66;100775.50;4979262;28;20231;-64
2022/02/24 05:08:34;;;;;;;9.00;5.70;;;;;;;8.99;56.10;100765.41;4963422;28;20207;-65
2022/02/24 05:10:59;;;;;;;5.77;4.87;;;;;;;9.19;56.81;100764.00;4979364;28;20226;-65
2022/02/24 05:13:25;;;;;;;8.50;5.20;;;;;;;9.04;56.65;100753.34;4979212;28;20602;-65
2022/02/24 05:15:50;;;;;;;6.20;5.07;;;;;;;9.08;56.51;100768.16;4979989;28;20172;-64
2022/02/24 05:18:15;;;;;;;7.53;4.93;;;;;;;8.89;56.52;100756.56;4978848;28;20182;-65
2022/02/24 05:20:41;;;;;;;10.27;5.40;;;;;;;9.12;55.58;100753.44;4979303;28;20176;-64
2022/02/24 05:23:06;;;;;;;7.00;5.03;;;;;;;9.20;56.08;100744.03;4979542;28;20200;-64
2022/02/24 05:25:35;;;;;;;7.33;5.10;;;;;;;8.90;56.92;100741.00;4979379;28;20173;-65
2022/02/24 05:28:06;;;;;;;6.00;4.83;;;;;;;9.47;55.22;100747.91;4979551;28;20176;-64
2022/02/24 05:30:32;;;;;;;6.30;4.80;;;;;;;8.86;57.09;100741.81;4979462;28;20387;-65
2022/02/24 05:32:57;;;;;;;7.30;5.23;;;;;;;8.92;56.97;100735.81;4978933;28;20421;-64
2022/02/24 05:35:22;;;;;;;6.63;5.17;;;;;;;9.02;56.30;100745.50;4962303;28;20246;-64
2022/02/24 05:37:48;;;;;;;8.10;5.40;;;;;;;8.94;56.59;100741.91;4979763;28;20191;-65
2022/02/24 05:40:13;;;;;;;8.27;5.50;;;;;;;8.72;56.76;100725.94;4979077;28;20208;-64
2022/02/24 05:42:38;;;;;;;7.33;4.90;;;;;;;8.96;57.33;100732.41;4979042;28;20259;-64
2022/02/24 05:45:04;;;;;;;6.57;4.83;;;;;;;8.64;57.20;100734.47;4979229;28;20227;-65
2022/02/24 05:47:29;;;;;;;7.90;6.00;;;;;;;9.10;56.73;100723.09;4978850;28;20597;-65
2022/02/24 05:49:54;;;;;;;12.60;5.93;;;;;;;8.71;58.37;100739.81;4978917;28;20172;-65
2022/02/24 05:52:20;;;;;;;8.50;5.23;;;;;;;9.19;57.04;100718.91;4979422;28;20168;-66
2022/02/24 05:54:47;;;;;;;7.60;5.70;;;;;;;8.87;56.71;100714.94;4978870;28;20541;-65
2022/02/24 05:57:12;;;;;;;10.03;5.97;;;;;;;8.45;57.41;100715.06;4978933;28;20550;-64
2022/02/24 05:59:38;;;;;;;8.50;5.70;;;;;;;8.87;58.18;100708.88;4979315;28;20456;-65
2022/02/24 06:02:03;;;;;;;10.73;5.93;;;;;;;8.77;56.59;100713.91;4978803;28;20180;-65
2022/02/24 06:04:28;;;;;;;7.47;5.90;;;;;;;9.11;56.47;100708.38;4978579;28;20212;-65
2022/02/24 06:06:55;;;;;;;9.20;7.20;;;;;;;8.87;56.97;100699.34;4979326;28;20171;-67
2022/02/24 06:09:20;;;;;;;10.47;7.13;;;;;;;8.77;56.37;100705.25;4978757;28;20251;-65
2022/02/24 06:11:46;;;;;;;15.97;6.90;;;;;;;8.69;57.45;100702.53;4978929;28;20755;-65
2022/02/24 06:14:12;;;;;;;11.63;7.10;;;;;;;8.82;56.20;100700.13;4979075;28;20163;-65
2022/02/24 06:16:38;;;;;;;11.70;7.17;;;;;;;8.61;56.14;100704.13;4978837;28;20817;-66
2022/02/24 06:19:03;;;;;;;11.43;7.10;;;;;;;8.96;55.95;100700.31;4962136;28;20168;-65
2022/02/24 06:21:28;;;;;;;8.93;6.43;;;;;;;8.92;56.23;100691.63;4979125;28;20169;-64
2022/02/24 06:23:54;;;;;;;15.57;7.37;;;;;;;9.14;55.14;100686.75;4978631;28;20235;-65
2022/02/24 06:26:19;;;;;;;13.97;6.83;;;;;;;8.85;55.52;100697.56;4978868;28;20173;-65
2022/02/24 06:28:44;;;;;;;13.37;6.97;;;;;;;8.75;56.07;100694.84;4979581;28;20522;-66
2022/02/24 06:31:10;;;;;;;9.63;6.20;;;;;;;9.09;55.70;100687.56;4980519;28;20176;-65
2022/02/24 06:33:35;;;;;;;16.03;7.57;;;;;;;9.14;55.31;100689.34;4981691;28;20207;-65
2022/02/24 06:36:01;;;;;;;11.20;6.70;;;;;;;8.79;55.26;100695.75;4981852;28;20590;-65
2022/02/24 06:38:27;;;;;;;8.77;5.97;;;;;;;8.97;55.32;100683.88;4981816;28;20415;-65
2022/02/24 06:40:53;;;;;;;12.77;6.60;;;;;;;9.00;54.96;100683.91;4982060;28;20168;-66
2022/02/24 06:43:19;;;;;;;11.53;6.17;;;;;;;9.26;54.23;100684.31;4981406;28;20649;-64
2022/02/24 06:45:44;;;;;;;6.10;5.30;;;;;;;8.91;55.26;100692.47;4981699;28;20168;-64
2022/02/24 06:48:09;;;;;;;9.87;6.40;;;;;;;9.23;54.57;100685.16;4981882;28;20481;-64
2022/02/24 06:50:35;;;;;;;8.87;6.43;;;;;;;9.03;55.35;100690.06;4981581;28;20227;-64
2022/02/24 06:53:00;;;;;;;10.43;6.37;;;;;;;8.80;55.15;100678.44;4981047;28;20168;-64
2022/02/24 06:55:25;;;;;;;6.57;5.87;;;;;;;8.94;55.21;100669.09;4981723;28;20168;-65
2022/02/24 06:57:52;;;;;;;7.30;6.20;;;;;;;9.27;54.17;100670.47;4981255;28;20168;-65
2022/02/24 07:00:18;;;;;;;9.67;6.10;;;;;;;9.30;55.68;100661.84;4981333;28;20178;-65
2022/02/24 07:02:44;;;;;;;10.50;6.43;;;;;;;9.20;54.29;100663.41;4981669;28;20598;-66
2022/02/24 07:05:10;;;;;;;12.47;6.73;;;;;;;9.37;53.80;100663.66;4981012;28;20477;-65
2022/02/24 07:07:35;;;;;;;10.20;6.63;;;;;;;9.27;53.75;100657.47;4981165;28;20177;-64
2022/02/24 07:10:04;;;;;;;12.53;6.67;;;;;;;9.16;54.15;100664.22;4981368;28;20423;-64
2022/02/24 07:12:29;;;;;;;7.60;6.80;;;;;;;9.11;55.49;100651.16;4981191;28;20195;-64
2022/02/24 07:14:54;;;;;;;14.17;7.10;;;;;;;9.20;54.75;100648.69;4981090;28;20398;-66
2022/02/24 07:17:20;;;;;;;9.73;6.87;;;;;;;9.17;54.63;100646.03;4980436;28;20426;-64
2022/02/24 07:19:45;;;;;;;11.20;6.10;;;;;;;9.35;55.47;100642.81;4989618;28;20179;-64
2022/02/24 07:22:10;;;;;;;8.27;7.27;;;;;;;9.39;53.63;100647.22;4993639;28;20172;-65
2022/02/24 07:24:35;;;;;;;9.13;7.10;;;;;;;9.29;54.82;100652.28;4981353;28;20199;-64
2022/02/24 07:27:01;;;;;;;16.10;7.07;;;;;;;9.45;55.75;100651.63;4992187;28;20190;-64
2022/02/24 07:29:26;;;;;;;14.40;6.90;;;;;;;9.21;56.07;100652.16;5000511;28;20210;-64
2022/02/24 07:31:51;;;;;;;11.13;7.33;;;;;;;9.56;55.31;100649.16;5000668;28;20279;-65
2022/02/24 07:34:17;;;;;;;10.77;6.50;;;;;;;9.20;55.47;100640.00;4998770;28;20187;-65
2022/02/24 07:36:43;;;;;;;10.63;6.70;;;;;;;9.22;55.80;100646.97;4980735;28;20204;-64
2022/02/24 07:39:11;;;;;;;15.97;7.70;;;;;;;9.27;56.59;100636.66;4981495;28;20206;-65
2022/02/24 07:41:40;;;;;;;9.60;6.03;;;;;;;9.45;55.53;100630.81;4980415;28;20489;-65
2022/02/24 07:44:06;;;;;;;9.37;6.70;;;;;;;9.31;55.97;100632.34;4980407;28;20881;-64
2022/02/24 07:46:32;;;;;;;7.83;6.33;;;;;;;9.59;55.66;100623.16;4980895;28;20416;-64
2022/02/24 07:48:57;;;;;;;7.17;6.10;;;;;;;9.15;56.22;100633.88;4980486;28;20784;-65
2022/02/24 07:51:22;;;;;;;13.47;9.27;;;;;;;9.60;55.21;100617.97;4981863;28;20176;-65
2022/02/24 07:53:48;;;;;;;10.43;6.97;;;;;;;9.56;55.36;100607.50;5000424;28;20533;-65
2022/02/24 07:56:13;;;;;;;10.93;6.60;;;;;;;9.10;56.61;100613.88;4999819;28;20211;-66
2022/02/24 07:58:38;;;;;;;18.17;7.00;;;;;;;9.56;56.14;100607.50;4999916;28;20179;-63
2022/02/24 08:01:04;;;;;;;8.63;6.50;;;;;;;9.50;55.88;100607.41;5000073;28;20355;-64
2022/02/24 08:03:29;;;;;;;9.77;6.47;;;;;;;9.33;55.59;100610.69;4999500;28;20207;-64
2022/02/24 08:05:55;;;;;;;9.33;6.97;;;;;;;9.20;56.86;100603.59;4999599;28;20301;-65
2022/02/24 08:08:21;;;;;;;9.67;6.50;;;;;;;9.05;56.76;100601.66;5000070;28;20168;-65
2022/02/24 08:10:48;;;;;;;14.70;7.57;;;;;;;9.40;55.88;100599.53;4982867;28;20172;-64
2022/02/24 08:13:13;;;;;;;8.70;5.90;;;;;;;9.42;55.81;100599.53;4999398;28;20430;-63
2022/02/24 08:15:38;;;;;;;9.73;6.70;;;;;;;9.53;54.98;100597.06;5000018;28;20453;-65
2022/02/24 08:18:04;;;;;;;10.60;5.90;;;;;;;9.77;54.86;100597.34;4999352;28;20438;-65
2022/02/24 08:20:29;;;;;;;10.13;6.87;;;;;;;9.36;55.93;100595.16;4999469;28;20176;-65
2022/02/24 08:22:57;;;;;;;11.50;6.40;;;;;;;9.74;56.15;100586.91;4999578;28;20196;-64
2022/02/24 08:25:23;;;;;;;8.60;6.40;;;;;;;9.53;54.88;100592.72;4998988;28;20175;-65
2022/02/24 08:27:49;;;;;;;9.20;6.93;;;;;;;9.73;54.70;100582.53;4979068;28;20790;-65
2022/02/24 08:30:21;;;;;;;11.57;6.60;;;;;;;9.83;55.57;100580.03;4980249;28;20416;-65
2022/02/24 08:32:46;;;;;;;12.47;6.53;;;;;;;9.81;54.89;100576.53;4979575;28;20184;-64
2022/02/24 08:35:13;;;;;;;9.33;6.20;;;;;;;9.75;54.75;100565.19;4989396;28;20478;-64
2022/02/24 08:37:39;;;;;;;9.43;6.20;;;;;;;9.73;55.20;100566.91;4999608;28;20199;-65
2022/02/24 08:40:04;;;;;;;9.50;5.90;;;;;;;9.89;54.27;100560.13;4999004;28;20529;-65
2022/02/24 08:42:30;;;;;;;8.00;5.30;;;;;;;9.55;54.98;100562.41;4982205;28;20179;-65
2022/02/24 08:44:55;;;;;;;11.40;6.37;;;;;;;9.51;55.13;100557.13;4999525;28;20262;-65
2022/02/24 08:47:21;;;;;;;9.67;5.83;;;;;;;9.60;55.17;100547.69;4998891;28;20265;-65
2022/02/24 08:49:48;;;;;;;10.63;6.50;;;;;;;9.69;55.02;100538.25;4999081;28;20167;-66
2022/02/24 08:52:13;;;;;;;7.67;5.50;;;;;;;9.82;54.74;100541.84;4982010;28;20441;-64
2022/02/24 08:54:39;;;;;;;11.10;5.60;;;;;;;10.12;53.91;100536.03;4981240;28;20521;-64
2022/02/24 08:57:05;;;;;;;9.13;5.27;;;;;;;9.63;54.49;100533.84;4998671;28;20227;-65
2022/02/24 08:59:30;;;;;;;10.10;4.93;;;;;;;9.73;54.23;100524.41;4999092;28;20394;-65
2022/02/24 09:01:56;;;;;;;7.13;5.70;;;;;;;10.33;53.27;100514.47;4998750;28;20179;-65
2022/02/24 09:04:21;;;;;;;5.53;4.93;;;;;;;9.91;54.54;100518.50;4998581;28;20309;-64
2022/02/24 09:06:47;;;;;;;9.13;5.53;;;;;;;9.91;54.20;100510.69;4999176;28;20234;-66
2022/02/24 09:09:12;;;;;;;9.90;5.13;;;;;;;10.15;53.82;100510.00;4998727;28;20226;-65
2022/02/24 09:11:38;;;;;;;7.33;4.73;;;;;;;10.17;52.96;100518.69;4998672;28;20176;-65
2022/02/24 09:14:04;;;;;;;9.30;4.83;;;;;;;10.05;54.07;100508.19;4998944;28;20182;-64
2022/02/24 09:16:30;;;;;;;5.97;4.63;;;;;;;10.17;52.76;100508.28;4998621;28;20510;-67
2022/02/24 09:18:55;;;;;;;8.77;4.83;;;;;;;9.90;54.08;100499.41;4998556;28;20179;-66
2022/02/24 09:21:20;;;;;;;10.23;5.57;;;;;;;10.68;52.13;100476.50;4999031;28;20233;-67
2022/02/24 09:23:46;;;;;;;9.90;5.40;;;;;;;10.66;51.83;100475.59;4998161;28;20217;-67
2022/02/24 09:26:11;;;;;;;8.10;5.10;;;;;;;10.72;51.86;100470.44;4998199;28;20195;-67
2022/02/24 09:28:37;;;;;;;7.83;4.60;;;;;;;10.49;52.77;100478.13;4998815;28;20172;-67
2022/02/24 09:31:02;;;;;;;12.70;5.67;;;;;;;10.07;53.83;100470.00;4998443;28;20299;-68
2022/02/24 09:33:28;;;;;;;10.30;4.90;;;;;;;10.49;53.49;100452.94;4998087;28;20473;-67
2022/02/24 09:35:54;;;;;;;9.60;5.00;;;;;;;10.11;53.33;100456.16;4998469;28;20251;-67
2022/02/24 09:38:19;;;;;;;9.10;4.70;;;;;;;10.35;53.55;100465.88;4998260;28;20190;-66
2022/02/24 09:40:46;;;;;;;8.27;5.63;;;;;;;10.61;53.25;100432.13;4998640;28;20163;-67
2022/02/24 09:43:11;;;;;;;6.43;4.90;;;;;;;10.71;52.34;100438.25;4998161;28;20254;-67
2022/02/24 09:45:39;;;;;;;11.27;4.93;;;;;;;10.66;52.47;100423.47;4998223;28;20393;-66
2022/02/24 09:48:06;;;;;;;7.20;4.07;;;;;;;10.74;51.80;100422.66;4998838;28;20263;-68
2022/02/24 09:50:33;;;;;;;10.37;4.30;;;;;;;11.54;50.00;100414.13;4981572;28;20681;-68
2022/02/24 09:52:58;;;;;;;8.30;4.93;;;;;;;13.25;46.62;100404.00;4998133;28;20434;-66
2022/02/24 09:55:24;;;;;;;8.93;4.97;;;;;;;14.27;44.14;100405.75;4998553;28;20388;-66
2022/02/24 09:57:49;;;;;;;9.43;4.30;;;;;;;15.34;41.26;100400.00;4998096;28;20498;-66
2022/02/24 10:00:15;;;;;;;10.07;4.73;;;;;;;15.03;41.87;100397.81;4998099;28;20175;-67
2022/02/24 10:02:40;;;;;;;10.77;5.53;;;;;;;12.92;45.31;100412.06;4998421;28;20234;-66
2022/02/24 10:05:10;;;;;;;5.93;4.43;;;;;;;14.35;42.61;100392.56;5000114;28;20533;-67
2022/02/24 10:07:40;;;;;;;7.60;4.37;;;;;;;15.06;41.11;100383.78;5002004;28;20160;-69
2022/02/24 10:10:31;;;;;;;9.13;5.13;;;;;;;13.90;43.70;100377.31;5001929;28;20418;-69
2022/02/24 10:13:09;;;;;;;7.47;4.77;;;;;;;14.00;43.09;100362.34;5001570;28;20393;-67
2022/02/24 10:15:42;;;;;;;7.73;4.83;;;;;;;14.72;42.17;100351.03;4984785;28;20414;-67
2022/02/24 10:18:10;;;;;;;7.40;5.10;;;;;;;14.30;42.68;100354.16;5001696;28;20430;-66
2022/02/24 10:20:44;;;;;;;5.70;4.80;;;;;;;13.58;44.56;100347.91;4984646;28;20431;-70
2022/02/24 10:23:11;;;;;;;8.17;6.07;;;;;;;13.57;44.56;100332.19;5001417;28;20856;-67
2022/02/24 10:25:41;;;;;;;7.03;5.10;;;;;;;13.69;44.51;100346.94;4999435;28;20760;-65
2022/02/24 10:28:07;;;;;;;6.57;4.83;;;;;;;13.77;44.11;100326.78;4981994;28;20447;-67
2022/02/24 10:30:33;;;;;;;7.73;5.00;;;;;;;13.73;44.00;100318.06;4982477;28;20439;-67
2022/02/24 10:33:00;;;;;;;11.80;5.47;;;;;;;12.92;45.63;100320.50;4981598;28;20251;-68
2022/02/24 10:35:34;;;;;;;10.80;5.67;;;;;;;12.69;46.34;100310.19;4993154;28;20215;-67
2022/02/24 10:38:13;;;;;;;14.00;6.50;;;;;;;13.30;45.19;100301.00;5001318;28;20461;-70
2022/02/24 10:40:45;;;;;;;7.77;5.30;;;;;;;13.17;45.06;100303.75;5001191;28;20455;-70
2022/02/24 10:43:19;;;;;;;8.90;5.23;;;;;;;12.52;47.03;100304.16;4984147;28;20481;-69
2022/02/24 10:45:47;;;;;;;10.10;5.37;;;;;;;12.39;46.58;100287.66;5001077;28;20445;-69
2022/02/24 10:48:12;;;;;;;9.93;5.33;;;;;;;12.70;46.89;100285.72;4984207;28;20385;-67
2022/02/24 10:50:51;;;;;;;7.53;5.10;;;;;;;12.53;46.85;100285.84;5001325;28;20437;-66
2022/02/24 10:53:19;;;;;;;7.13;5.10;;;;;;;12.52;47.18;100278.88;5001049;28;20171;-66
2022/02/24 10:56:05;;;;;;;9.53;5.00;;;;;;;12.18;47.89;100275.56;5001233;28;20378;-69
2022/02/24 10:58:42;;;;;;;7.30;4.70;;;;;;;11.58;49.17;100282.69;5000974;28;20521;-68
2022/02/24 11:01:17;;;;;;;8.53;5.60;;;;;;;11.61;49.59;100276.59;4984009;28;20637;-69
2022/02/24 11:03:47;;;;;;;7.50;5.20;;;;;;;12.33;48.24;100262.44;4983649;28;20425;-68
2022/02/24 11:06:13;;;;;;;11.37;5.70;;;;;;;11.80;49.61;100262.63;5000775;28;20656;-68
2022/02/24 11:08:39;;;;;;;9.20;5.97;;;;;;;12.16;48.84;100248.59;5000379;28;20419;-68
2022/02/24 11:11:05;;;;;;;5.90;4.87;;;;;;;11.56;50.59;100241.81;5000698;28;20183;-68
2022/02/24 11:13:31;;;;;;;15.40;6.57;;;;;;;12.15;49.58;100237.28;5000904;28;20377;-68
2022/02/24 11:15:58;;;;;;;8.70;5.40;;;;;;;11.69;50.42;100243.50;4999819;28;20430;-67
2022/02/24 11:18:24;;;;;;;12.23;5.23;;;;;;;12.03;49.51;100232.97;5000603;28;20430;-67
2022/02/24 11:20:50;;;;;;;9.37;5.73;;;;;;;11.85;49.77;100233.00;4983787;28;20398;-68
2022/02/24 11:23:16;;;;;;;6.60;4.93;;;;;;;11.94;49.41;100223.41;5000159;28;20277;-67